Time,TemperatureF,DewpointF,PressureIn,WindDirection,WindDirectionDegrees,WindSpeedMPH,WindSpeedGustMPH,Humidity,HourlyPrecipIn,Conditions,Clouds,dailyrainin,SolarRadiationWatts/m^2,SoftwareType,DateUTC
2013-07-03 00:02:00,69.0,68.0,-100.00,SW,235,4.0,9.0,95,0.00,,,1.61,0.000000,,2013-07-03 04:02:00,
2013-07-03 00:34:00,68.0,67.0,-100.00,North,5,2.0,8.0,96,0.00,,,1.61,0.000000,,2013-07-03 04:34:00,
2013-07-03 00:43:00,68.0,67.0,-100.00,North,5,2.0,8.0,96,0.00,,,1.61,0.000000,,2013-07-03 04:43:00,
2013-07-03 00:52:00,68.0,67.0,-100.00,North,5,2.0,8.0,96,0.00,,,1.61,0.000000,,2013-07-03 04:52:00,
2013-07-03 01:02:00,68.0,67.0,-100.00,North,5,2.0,8.0,96,0.00,,,1.61,0.000000,,2013-07-03 05:02:00,
2013-07-03 01:08:00,68.0,67.0,-100.00,SE,145,2.0,6.0,97,0.00,,,1.61,0.000000,,2013-07-03 05:08:00,
2013-07-03 01:41:00,68.0,67.0,-100.00,SE,145,2.0,6.0,97,0.00,,,1.61,0.000000,,2013-07-03 05:41:00,
2013-07-03 01:48:00,68.0,67.0,-100.00,SE,145,2.0,6.0,97,0.00,,,1.61,0.000000,,2013-07-03 05:48:00,
2013-07-03 02:01:00,68.0,67.0,-100.00,SE,145,2.0,6.0,97,0.00,,,1.61,0.000000,,2013-07-03 06:01:00,
2013-07-03 02:40:00,68.0,67.0,-100.00,SSW,192,2.0,9.0,98,0.00,,,1.61,0.000000,,2013-07-03 06:40:00,
2013-07-03 02:50:00,68.0,67.0,-100.00,SSW,192,2.0,9.0,98,0.00,,,1.61,0.000000,,2013-07-03 06:50:00,
2013-07-03 02:58:00,68.0,67.0,-100.00,SSW,192,2.0,9.0,98,0.00,,,1.61,0.000000,,2013-07-03 06:58:00,
2013-07-03 03:48:00,68.0,67.0,-100.00,SE,130,2.0,8.0,96,0.00,,,1.61,0.000000,,2013-07-03 07:48:00,
2013-07-03 04:02:00,68.0,67.0,-100.00,SE,130,2.0,8.0,96,0.00,,,1.61,0.000000,,2013-07-03 08:02:00,
2013-07-03 04:38:00,68.0,67.0,-100.00,SSE,148,3.0,7.0,97,0.00,,,1.61,0.000000,,2013-07-03 08:38:00,
2013-07-03 04:48:00,68.0,67.0,-100.00,SSE,148,3.0,7.0,97,0.00,,,1.61,0.000000,,2013-07-03 08:48:00,
2013-07-03 04:58:00,68.0,67.0,-100.00,SSE,148,3.0,7.0,97,0.00,,,1.61,0.000000,,2013-07-03 08:58:00,
2013-07-03 05:40:00,68.0,67.0,-100.00,ESE,104,2.0,6.0,97,0.00,,,1.61,0.000000,,2013-07-03 09:40:00,
2013-07-03 05:48:00,68.0,67.0,-100.00,ESE,104,2.0,6.0,97,0.00,,,1.61,0.000000,,2013-07-03 09:48:00,
2013-07-03 06:37:00,68.0,67.0,-100.00,ENE,77,2.0,6.0,97,0.00,,,1.61,4.000000,,2013-07-03 10:37:00,
2013-07-03 06:47:00,68.0,67.0,-100.00,ENE,77,2.0,6.0,97,0.00,,,1.61,4.000000,,2013-07-03 10:47:00,
2013-07-03 07:08:00,69.0,68.0,-100.00,West,281,2.0,6.0,96,0.00,,,1.61,34.000000,,2013-07-03 11:08:00,
2013-07-03 07:46:00,69.0,68.0,-100.00,West,281,2.0,6.0,96,0.00,,,1.61,34.000000,,2013-07-03 11:46:00,
2013-07-03 07:59:00,69.0,68.0,-100.00,West,281,2.0,6.0,96,0.00,,,1.61,34.000000,,2013-07-03 11:59:00,
2013-07-03 08:08:00,71.0,69.0,-100.00,WNW,282,2.0,5.0,94,0.00,,,1.61,73.000000,,2013-07-03 12:08:00,
2013-07-03 08:38:00,71.0,69.0,-100.00,WNW,282,2.0,5.0,94,0.00,,,1.61,73.000000,,2013-07-03 12:38:00,
2013-07-03 08:47:00,71.0,69.0,-100.00,WNW,282,2.0,5.0,94,0.00,,,1.61,73.000000,,2013-07-03 12:47:00,
2013-07-03 08:59:00,71.0,69.0,-100.00,WNW,282,2.0,5.0,94,0.00,,,1.61,73.000000,,2013-07-03 12:59:00,
2013-07-03 09:56:00,72.0,69.0,-100.00,WSW,243,2.0,6.0,91,0.00,,,1.61,126.000000,,2013-07-03 13:56:00,
2013-07-03 10:07:00,72.0,69.0,-100.00,WSW,243,2.0,6.0,91,0.00,,,1.61,126.000000,,2013-07-03 14:07:00,
2013-07-03 10:48:00,73.0,68.0,-100.00,SSW,203,2.0,7.0,85,0.00,,,1.61,179.000000,,2013-07-03 14:48:00,
2013-07-03 10:56:00,73.0,68.0,-100.00,SSW,203,2.0,7.0,85,0.00,,,1.61,179.000000,,2013-07-03 14:56:00,
2013-07-03 11:06:00,73.0,68.0,-100.00,SSW,203,2.0,7.0,85,0.00,,,1.61,179.000000,,2013-07-03 15:06:00,
2013-07-03 11:38:00,75.0,69.0,-100.00,South,185,3.0,10.0,82,0.00,,,1.61,278.000000,,2013-07-03 15:38:00,
2013-07-03 11:49:00,75.0,69.0,-100.00,South,185,3.0,10.0,82,0.00,,,1.61,278.000000,,2013-07-03 15:49:00,
2013-07-03 11:57:00,75.0,69.0,-100.00,South,185,3.0,10.0,82,0.00,,,1.61,278.000000,,2013-07-03 15:57:00,
2013-07-03 12:07:00,75.0,69.0,-100.00,South,185,3.0,10.0,82,0.00,,,1.61,278.000000,,2013-07-03 16:07:00,
2013-07-03 12:40:00,76.0,68.0,-100.00,South,186,4.0,10.0,76,0.00,,,1.61,445.000000,,2013-07-03 16:40:00,
2013-07-03 12:47:00,76.0,68.0,-100.00,South,186,4.0,10.0,76,0.00,,,1.61,445.000000,,2013-07-03 16:47:00,
2013-07-03 13:01:00,76.0,68.0,-100.00,South,186,4.0,10.0,76,0.00,,,1.61,445.000000,,2013-07-03 17:01:00,
2013-07-03 13:08:00,78.0,70.0,-100.00,ESE,117,3.0,9.0,77,0.00,,,1.61,445.000000,,2013-07-03 17:08:00,
2013-07-03 13:43:00,78.0,70.0,-100.00,ESE,117,3.0,9.0,77,0.00,,,1.61,445.000000,,2013-07-03 17:43:00,
2013-07-03 13:50:00,78.0,70.0,-100.00,ESE,117,3.0,9.0,77,0.00,,,1.61,445.000000,,2013-07-03 17:50:00,
2013-07-03 13:56:00,78.0,70.0,-100.00,ESE,117,3.0,9.0,77,0.00,,,1.61,445.000000,,2013-07-03 17:56:00,
2013-07-03 14:39:00,79.0,70.0,-100.00,South,171,3.0,9.0,74,0.00,,,-99.99,495.000000,,2013-07-03 18:39:00,
2013-07-03 14:59:00,79.0,70.0,-100.00,South,171,3.0,9.0,74,0.00,,,-99.99,495.000000,,2013-07-03 18:59:00,
2013-07-03 15:38:00,81.0,71.0,-100.00,SW,222,3.0,7.0,71,0.00,,,1.60,501.000000,,2013-07-03 19:38:00,
2013-07-03 15:49:00,81.0,71.0,-100.00,SW,222,3.0,7.0,71,0.00,,,1.60,501.000000,,2013-07-03 19:49:00,
2013-07-03 15:58:00,81.0,71.0,-100.00,SW,222,3.0,7.0,71,0.00,,,1.60,501.000000,,2013-07-03 19:58:00,
2013-07-03 16:38:00,80.0,69.0,-100.00,SE,146,4.0,8.0,69,0.00,,,1.60,553.000000,,2013-07-03 20:38:00,
2013-07-03 16:47:00,80.0,69.0,-100.00,SE,146,4.0,8.0,69,0.00,,,1.60,553.000000,,2013-07-03 20:47:00,
2013-07-03 16:57:00,80.0,69.0,-100.00,SE,146,4.0,8.0,69,0.00,,,1.60,553.000000,,2013-07-03 20:57:00,
2013-07-03 17:06:00,80.0,69.0,-100.00,SE,146,4.0,8.0,69,0.00,,,1.60,553.000000,,2013-07-03 21:06:00,
2013-07-03 17:45:00,82.0,72.0,-100.00,SSE,151,3.0,8.0,71,0.00,,,1.60,448.000000,,2013-07-03 21:45:00,
2013-07-03 17:55:00,82.0,72.0,-100.00,SSE,151,3.0,8.0,71,0.00,,,1.60,448.000000,,2013-07-03 21:55:00,
2013-07-03 18:06:00,82.0,72.0,-100.00,SSE,151,3.0,8.0,71,0.00,,,1.60,448.000000,,2013-07-03 22:06:00,
2013-07-03 18:38:00,80.0,71.0,-100.00,ESE,113,4.0,9.0,73,0.00,,,1.16,348.000000,,2013-07-03 22:38:00,
2013-07-03 18:47:00,80.0,71.0,-100.00,ESE,113,4.0,9.0,73,0.00,,,1.16,348.000000,,2013-07-03 22:47:00,
2013-07-03 18:57:00,80.0,71.0,-100.00,ESE,113,4.0,9.0,73,0.00,,,1.16,348.000000,,2013-07-03 22:57:00,
2013-07-03 19:40:00,76.0,69.0,-100.00,WSW,255,3.0,11.0,79,0.00,,,0.63,135.000000,,2013-07-03 23:40:00,
2013-07-03 19:46:00,76.0,69.0,-100.00,WSW,255,3.0,11.0,79,0.00,,,0.63,135.000000,,2013-07-03 23:46:00,
2013-07-03 19:56:00,76.0,69.0,-100.00,WSW,255,3.0,11.0,79,0.00,,,0.63,135.000000,,2013-07-03 23:56:00,
2013-07-03 20:06:00,76.0,69.0,-100.00,WSW,255,3.0,11.0,79,0.00,,,0.63,135.000000,,2013-07-04 00:06:00,
2013-07-03 20:38:00,74.0,68.0,-100.00,ENE,61,2.0,6.0,83,0.00,,,0.00,47.000000,,2013-07-04 00:38:00,
2013-07-03 20:50:00,74.0,68.0,-100.00,ENE,61,2.0,6.0,83,0.00,,,0.00,47.000000,,2013-07-04 00:50:00,
2013-07-03 21:06:00,74.0,68.0,-100.00,ENE,61,2.0,6.0,83,0.00,,,0.00,47.000000,,2013-07-04 01:06:00,
2013-07-03 21:08:00,73.0,68.0,-100.00,ESE,107,2.0,5.0,84,0.00,,,0.00,5.000000,,2013-07-04 01:08:00,
2013-07-03 21:40:00,73.0,68.0,-100.00,ESE,107,2.0,5.0,84,0.00,,,0.00,5.000000,,2013-07-04 01:40:00,
2013-07-03 22:49:00,71.0,69.0,-100.00,SSE,154,2.0,4.0,95,0.00,,,0.00,0.000000,,2013-07-04 02:49:00,
2013-07-03 22:57:00,71.0,69.0,-100.00,SSE,154,2.0,4.0,95,0.00,,,0.00,0.000000,,2013-07-04 02:57:00,
2013-07-03 23:05:00,71.0,69.0,-100.00,SSE,154,2.0,4.0,95,0.00,,,0.00,0.000000,,2013-07-04 03:05:00,
2013-07-03 23:46:00,69.0,68.0,-100.00,NNW,337,1.0,3.0,98,0.00,,,0.00,0.000000,,2013-07-04 03:46:00,
2013-07-03 23:57:00,69.0,68.0,-100.00,NNW,337,1.0,3.0,98,0.00,,,0.00,0.000000,,2013-07-04 03:57:00,